Flight Track Log - Related Links

Times and Time Zones

All times are in EDT time to prevent confusion due to time zone crossing. See the CSN3931 flight status page for this flight to view local times or setup timezone preferences in your user account.

Time Position Orientation Groundspeed Altitude Reporting Facility
EDT Latitude Longitude Course Direction KTS MPH feet Rate Location/Type
Sun 08:24:00 PM 23.5366 113.0956 308° West  Level Estimated
Sun 08:25:00 PM 23.6086 112.9938 308° West  Level Estimated
Sun 08:26:00 PM 23.6805 112.8919 308° West  Level Estimated
Sun 08:27:00 PM 23.7524 112.7899 308° West  Level Estimated
Sun 08:28:00 PM 23.8242 112.6878 308° West  Level Estimated
Sun 08:29:00 PM 23.8959 112.5856 308° West  Level Estimated
Sun 08:30:00 PM 23.9675 112.4832 307° West  Level Estimated
Sun 08:31:00 PM 24.0391 112.3808 307° West  Level Estimated
Sun 08:32:00 PM 24.1106 112.2782 307° West  Level Estimated
Sun 08:33:00 PM 24.1821 112.1755 307° West  Level Estimated
Sun 08:34:00 PM 24.2535 112.0727 307° West  Level Estimated
Sun 08:35:00 PM 24.3248 111.9698 307° West  Level Estimated
Sun 08:36:00 PM 24.3960 111.8668 307° West  Level Estimated
Sun 08:37:00 PM 24.4672 111.7637 307° West  Level Estimated
Sun 08:38:00 PM 24.5383 111.6604 307° West  Level Estimated
Sun 08:39:00 PM 24.6093 111.5570 307° West  Level Estimated
Sun 08:40:00 PM 24.6803 111.4535 307° West  Level Estimated
Sun 08:41:00 PM 24.7512 111.3499 307° West  Level Estimated
Sun 08:42:00 PM 24.8220 111.2462 307° West  Level Estimated
Sun 08:43:00 PM 24.8927 111.1423 307° West  Level Estimated
Sun 08:44:00 PM 24.9634 111.0384 307° West  Level Estimated
Sun 08:45:00 PM 25.0340 110.9343 307° West  Level Estimated
Sun 08:46:00 PM 25.1046 110.8301 307° West  Level Estimated
Sun 08:47:00 PM 25.1750 110.7258 307° West  Level Estimated
Sun 08:48:00 PM 25.2454 110.6213 307° West  Level Estimated
Sun 08:49:00 PM 25.3157 110.5167 307° West  Level Estimated
Sun 08:50:00 PM 25.3860 110.4120 307° West  Level Estimated
Sun 08:51:00 PM 25.4561 110.3072 307° West  Level Estimated
Sun 08:52:00 PM 25.5262 110.2023 307° West  Level Estimated
Sun 08:53:00 PM 25.5962 110.0972 306° West  Level Estimated
Sun 08:54:00 PM 25.6661 109.9921 306° West  Level Estimated
Sun 08:55:00 PM 25.7360 109.8868 306° West  Level Estimated
Sun 08:56:00 PM 25.8058 109.7813 306° West  Level Estimated
Sun 08:57:00 PM 25.8755 109.6758 306° West  Level Estimated
Sun 08:58:00 PM 25.9452 109.5701 306° West  Level Estimated
Sun 08:59:00 PM 26.0147 109.4643 306° West  Level Estimated
Sun 09:00:00 PM 26.0842 109.3584 306° West  Level Estimated
Sun 09:01:00 PM 26.1536 109.2523 306° West  Level Estimated
Sun 09:02:00 PM 26.2229 109.1462 306° West  Level Estimated
Sun 09:03:00 PM 26.2922 109.0399 306° West  Level Estimated
Sun 09:04:00 PM 26.3613 108.9334 306° West  Level Estimated
Sun 09:05:00 PM 26.4304 108.8269 306° West  Level Estimated
Sun 09:06:00 PM 26.4994 108.7202 306° West  Level Estimated
Sun 09:07:00 PM 26.5684 108.6134 306° West  Level Estimated
Sun 09:08:00 PM 26.6372 108.5064 306° West  Level Estimated
Sun 09:09:00 PM 26.7060 108.3994 306° West  Level Estimated
Sun 09:10:00 PM 26.7747 108.2922 306° West  Level Estimated
Sun 09:11:00 PM 26.8433 108.1848 306° West  Level Estimated
Sun 09:12:00 PM 26.9118 108.0774 306° West  Level Estimated
Sun 09:13:00 PM 26.9803 107.9698 306° West  Level Estimated
Sun 09:14:00 PM 27.0486 107.8621 305° West  Level Estimated
Sun 09:15:00 PM 27.1169 107.7542 305° West  Level Estimated
Sun 09:16:00 PM 27.1851 107.6462 305° West  Level Estimated
Sun 09:17:00 PM 27.2533 107.5381 305° West  Level Estimated
Sun 09:18:00 PM 27.3213 107.4299 305° West  Level Estimated
Sun 09:19:00 PM 27.3892 107.3215 305° West  Level Estimated
Sun 09:20:00 PM 27.4571 107.2130 305° West  Level Estimated
Sun 09:21:00 PM 27.5249 107.1043 305° West  Level Estimated
Sun 09:22:00 PM 27.5900 106.9997 305° West  Level Estimated
Sun 09:23:00 PM 27.5900 106.9997 90° East  Level Estimated
Sun 09:24:00 PM 27.5900 106.9997 90° East  Level Estimated
Sun 09:25:00 PM 27.5900 106.9997 90° East  Level Estimated
Sun 09:26:00 PM 27.5900 106.9997 90° East  Level Estimated
Sun 09:27:00 PM 27.5900 106.9997 90° East  Level Estimated
Sun 09:28:00 PM 27.5900 106.9997 90° East  Level Estimated
Sun 09:29:00 PM 27.5900 106.9997 90° East  Level Estimated
Sun 09:30:00 PM 27.5900 106.9997 90° East  Level Estimated
Sun 09:31:00 PM 27.5900 106.9997 90° East  Level Estimated
Sun 09:32:00 PM 27.5900 106.9997 90° East  Level Estimated
Sun 09:33:00 PM 27.5900 106.9997 90° East  Level Estimated
Sun 09:34:00 PM 27.5900 106.9997 90° East  Level Estimated
Sun 09:35:00 PM 27.5900 106.9997 90° East  Level Estimated
Sun 09:36:00 PM 27.5900 106.9997 90° East  Level Estimated

Login

Don't have an account? Register now (free) for customized features, flight alerts, and more!